Terminal Aerodrome Forecast
Issued by NWS Cleveland, OH

Home | Current Version | Previous Version | Graphics & Text | Print | Product List | Glossary On
Versions: 1 2 3 4 5 6 7 8 9 10 11 12 13 14 15 16 17 18 19 20 21 22 23
000
FTUS41 KCLE 250900 AAB
TAFTOL
TAF AMD
KTOL 250930Z 2509/2606 12010KT P6SM -RA SCT025 OVC045 WS015/18045KT
     FM251100 15012KT 3SM -RA BR OVC010 WS015/20050KT
      TEMPO 2512/2513 2SM -RA
     FM251400 24015G25KT P6SM BKN019 OVC045
     FM251800 25020G32KT P6SM BKN020
     FM252100 25014G20KT P6SM BKN250
     FM260300 24005KT P6SM BKN100 OVC250=

USA.gov is the U.S. government's official web portal to all federal, state and local government web resources and services.